Site contains unofficial IBTrACS data. Visit the IBTrACS Website to access archived data.

1929 NOT_NAMED (1929279N14142)


IBTrACS version v04r00. Visit IBTrACS website for data access.
Please direct all questions to the IBTrACS Q and A forum

Storm track - Intensity - Wind Radii - Intensity Data - Source Data - All data

Summary Information

Storm ID 1929279N14142
Start Oct 5 22Z
End Oct 11 22Z
ATCF IDs
Track status Best track data.

Storm track plot

Map of storm track

Intensity plots

No Intensity information for this storm


Radial wind information

No radial wind information for this storm


Position and Intensity Table

BASIN ISO_TIME_________ NATURE LAT LON
degrees north degrees east
WP 1929-10-05 22:00:00 NR 14.00 142.40
WP 1929-10-06 00:00:00 NR 14.02 141.94
WP 03:00:00 NR 14.05 141.25
WP 06:00:00 NR 14.08 140.60
WP 09:00:00 NR 14.10 139.99
WP 10:00:00 NR 14.10 139.80
WP 12:00:00 NR 14.10 139.45
WP 15:00:00 NR 14.11 138.95
WP 18:00:00 NR 14.10 138.47
WP 21:00:00 NR 14.10 137.98
WP 22:00:00 NR 14.10 137.80
WP 1929-10-07 00:00:00 NR 14.09 137.41
WP 03:00:00 NR 14.07 136.80
WP 06:00:00 NR 14.07 136.16
WP 09:00:00 NR 14.09 135.51
WP 10:00:00 NR 14.10 135.30
WP 12:00:00 NR 14.14 134.86
WP 15:00:00 NR 14.22 134.19
WP 18:00:00 NR 14.33 133.55
WP 21:00:00 NR 14.46 132.97
WP 22:00:00 NR 14.50 132.80
WP 1929-10-08 00:00:00 NR 14.58 132.49
WP 03:00:00 NR 14.71 132.09
WP 06:00:00 NR 14.86 131.75
WP 09:00:00 NR 15.03 131.41
WP 10:00:00 NR 15.10 131.30
WP 12:00:00 NR 15.23 131.03
WP 15:00:00 NR 15.44 130.62
WP 18:00:00 NR 15.69 130.24
WP 21:00:00 NR 15.99 129.90
WP 22:00:00 NR 16.10 129.80
WP 1929-10-09 00:00:00 NR 16.32 129.63
WP 03:00:00 NR 16.71 129.42
WP 06:00:00 NR 17.14 129.27
WP 09:00:00 NR 17.63 129.14
WP 10:00:00 NR 17.80 129.10
WP 12:00:00 NR 18.17 129.01
WP 15:00:00 NR 18.78 128.89
WP 18:00:00 NR 19.40 128.79
WP 21:00:00 NR 20.01 128.72
WP 22:00:00 NR 20.20 128.70
WP 1929-10-10 00:00:00 NR 20.55 128.66
WP 03:00:00 NR 21.03 128.62
WP 06:00:00 NR 21.49 128.60
WP 09:00:00 NR 21.95 128.60
WP 10:00:00 NR 22.10 128.60
WP 12:00:00 NR 22.42 128.59
WP 15:00:00 NR 22.91 128.58
WP 18:00:00 NR 23.39 128.60
WP 21:00:00 NR 23.85 128.67
WP 22:00:00 NR 24.00 128.70
WP 1929-10-11 00:00:00 NR 24.28 128.79
WP 03:00:00 NR 24.68 128.96
WP 06:00:00 NR 25.07 129.17
WP 09:00:00 NR 25.46 129.41
WP 10:00:00 NR 25.60 129.50
WP 12:00:00 NR 25.88 129.67
WP 15:00:00 NR 26.32 129.94
WP 18:00:00 NR 26.78 130.22
WP 21:00:00 NR 27.24 130.50
WP 22:00:00 NR 27.40 130.60

Source Information

Agency Information
USA
TOKYO
CMA
HKO
NEWDELHI
REUNION
BOM
NADI
WELLINGTON
DS824
TD9636 cons_worldwide_trop_cyclone_18710101-19891231-003:Line=8413
TD9635
NEUMANN
MLC

All available IBTrACS Data

SEASON BASIN SUBBASIN ISO_TIME_________ NATURE LAT LON DIST2LAND LANDFALL IFLAG USA SSHS TD9636 LAT TD9636 LON TD9636 STAGE STORM SPEED STORM DIR
Year degrees north degrees east km km 1 degrees north degrees east kts degrees
1929 WP MM 1929-10-05 22:00:00 NR 14.00 142.40 1806 1780 __________O___ -1 14.00 142.40 2 14 273
1929 WP MM 1929-10-06 00:00:00 NR 14.02 141.94 1780 1718 __________P___ -1 14.02 141.94 2 13 273
1929 WP MM 03:00:00 NR 14.05 141.25 1718 1644 __________P___ -1 14.05 141.25 2 13 272
1929 WP MM 06:00:00 NR 14.08 140.60 1644 1580 __________P___ -1 14.08 140.60 2 12 272
1929 WP MM 09:00:00 NR 14.10 139.99 1580 1559 __________P___ -1 14.10 139.99 2 12 272
1929 WP MM 10:00:00 NR 14.10 139.80 1559 1516 __________O___ -1 14.10 139.80 2 11 271
1929 WP MM 12:00:00 NR 14.10 139.45 1516 1474 __________P___ -1 14.10 139.45 2 10 270
1929 WP MM 15:00:00 NR 14.11 138.95 1474 1422 __________P___ -1 14.11 138.95 2 9 270
1929 WP MM 18:00:00 NR 14.10 138.47 1422 1369 __________P___ -1 14.10 138.47 2 9 270
1929 WP MM 21:00:00 NR 14.10 137.98 1369 1348 __________P___ -1 14.10 137.98 2 10 270
1929 WP MM 22:00:00 NR 14.10 137.80 1348 1306 __________O___ -1 14.10 137.80 7 11 269
1929 WP MM 1929-10-07 00:00:00 NR 14.09 137.41 1306 1242 __________P___ -1 14.09 137.41 7 12 268
1929 WP MM 03:00:00 NR 14.07 136.80 1242 1178 __________P___ -1 14.07 136.80 7 12 269
1929 WP MM 06:00:00 NR 14.07 136.16 1178 1103 __________P___ -1 14.07 136.16 7 12 271
1929 WP MM 09:00:00 NR 14.09 135.51 1103 1082 __________P___ -1 14.09 135.51 7 13 272
1929 WP MM 10:00:00 NR 14.10 135.30 1082 1040 __________O___ -1 14.10 135.30 7 13 275
1929 WP MM 12:00:00 NR 14.14 134.86 1040 968 __________P___ -1 14.14 134.86 7 13 276
1929 WP MM 15:00:00 NR 14.22 134.19 968 908 __________P___ -1 14.22 134.19 7 13 279
1929 WP MM 18:00:00 NR 14.33 133.55 908 848 __________P___ -1 14.33 133.55 7 12 281
1929 WP MM 21:00:00 NR 14.46 132.97 851 831 __________P___ -1 14.46 132.97 7 11 283
1929 WP MM 22:00:00 NR 14.50 132.80 831 803 __________O___ -1 14.50 132.80 7 10 285
1929 WP MM 1929-10-08 00:00:00 NR 14.58 132.49 803 766 __________P___ -1 14.58 132.49 7 9 287
1929 WP MM 03:00:00 NR 14.71 132.09 766 735 __________P___ -1 14.71 132.09 7 8 291
1929 WP MM 06:00:00 NR 14.86 131.75 735 710 __________P___ -1 14.86 131.75 7 7 296
1929 WP MM 09:00:00 NR 15.03 131.41 710 706 __________P___ -1 15.03 131.41 7 7 300
1929 WP MM 10:00:00 NR 15.10 131.30 706 682 __________O___ -1 15.10 131.30 7 8 297
1929 WP MM 12:00:00 NR 15.23 131.03 682 657 __________P___ -1 15.23 131.03 7 9 297
1929 WP MM 15:00:00 NR 15.44 130.62 657 641 __________P___ -1 15.44 130.62 7 9 301
1929 WP MM 18:00:00 NR 15.69 130.24 641 630 __________P___ -1 15.69 130.24 7 9 308
1929 WP MM 21:00:00 NR 15.99 129.90 636 626 __________P___ -1 15.99 129.90 7 9 314
1929 WP MM 22:00:00 NR 16.10 129.80 630 619 __________O___ -1 16.10 129.80 7 9 322
1929 WP MM 1929-10-09 00:00:00 NR 16.32 129.63 619 619 __________P___ -1 16.32 129.63 7 9 329
1929 WP MM 03:00:00 NR 16.71 129.42 621 621 __________P___ -1 16.71 129.42 7 9 337
1929 WP MM 06:00:00 NR 17.14 129.27 635 633 __________P___ -1 17.14 129.27 7 10 343
1929 WP MM 09:00:00 NR 17.63 129.14 651 658 __________P___ -1 17.63 129.14 7 10 347
1929 WP MM 10:00:00 NR 17.80 129.10 665 665 __________O___ -1 17.80 129.10 7 11 347
1929 WP MM 12:00:00 NR 18.17 129.01 687 687 __________P___ -1 18.17 129.01 7 12 348
1929 WP MM 15:00:00 NR 18.78 128.89 697 687 __________P___ -1 18.78 128.89 7 13 351
1929 WP MM 18:00:00 NR 19.40 128.79 692 688 __________P___ -1 19.40 128.79 7 12 353
1929 WP MM 21:00:00 NR 20.01 128.72 695 695 __________P___ -1 20.01 128.72 7 12 354
1929 WP MM 22:00:00 NR 20.20 128.70 701 701 __________O___ -1 20.20 128.70 3 11 354
1929 WP MM 1929-10-10 00:00:00 NR 20.55 128.66 710 708 __________P___ -1 20.55 128.66 3 10 354
1929 WP MM 03:00:00 NR 21.03 128.62 720 725 __________P___ -1 21.03 128.62 3 10 356
1929 WP MM 06:00:00 NR 21.49 128.60 744 743 __________P___ -1 21.49 128.60 3 9 0
1929 WP MM 09:00:00 NR 21.95 128.60 743 734 __________P___ -1 21.95 128.60 3 9 358
1929 WP MM 10:00:00 NR 22.10 128.60 734 722 __________O___ -1 22.10 128.60 4 10 0
1929 WP MM 12:00:00 NR 22.42 128.59 722 704 __________P___ -1 22.42 128.59 4 10 358
1929 WP MM 15:00:00 NR 22.91 128.58 704 691 __________P___ -1 22.91 128.58 4 10 1
1929 WP MM 18:00:00 NR 23.39 128.60 691 681 __________P___ -1 23.39 128.60 4 9 5
1929 WP MM 21:00:00 NR 23.85 128.67 688 686 __________P___ -1 23.85 128.67 4 9 9
1929 WP MM 22:00:00 NR 24.00 128.70 686 682 __________O___ -1 24.00 128.70 4 9 14
1929 WP MM 1929-10-11 00:00:00 NR 24.28 128.79 691 689 __________P___ -1 24.28 128.79 4 9 19
1929 WP MM 03:00:00 NR 24.68 128.96 706 674 __________P___ -1 24.68 128.96 4 9 24
1929 WP MM 06:00:00 NR 25.07 129.17 674 627 __________P___ -1 25.07 129.17 4 9 28
1929 WP MM 09:00:00 NR 25.46 129.41 627 614 __________P___ -1 25.46 129.41 4 9 29
1929 WP MM 10:00:00 NR 25.60 129.50 614 577 __________O___ -1 25.60 129.50 4 10 29
1929 WP MM 12:00:00 NR 25.88 129.67 577 530 __________P___ -1 25.88 129.67 4 10 29
1929 WP MM 15:00:00 NR 26.32 129.94 530 471 __________P___ -1 26.32 129.94 4 10 29
1929 WP MM 18:00:00 NR 26.78 130.22 471 424 __________P___ -1 26.78 130.22 4 11 28
1929 WP MM 21:00:00 NR 27.24 130.50 424 401 __________P___ -1 27.24 130.50 4 11 28
1929 WP MM 22:00:00 NR 27.40 130.60 401 __________O___ -1 27.40 130.60 4 11 31